sensor_id;sensor_type;location;lat;lon;timestamp;P1;durP1;ratioP1;P2;durP2;ratioP2
60372;SDS011;46216;52.220;5.134;2022-10-10T00:00:40;7.70;;;5.93;;
60372;SDS011;46216;52.220;5.134;2022-10-10T00:03:06;6.90;;;5.85;;
60372;SDS011;46216;52.220;5.134;2022-10-10T00:05:33;8.02;;;5.80;;
60372;SDS011;46216;52.220;5.134;2022-10-10T00:08:00;6.35;;;5.72;;
60372;SDS011;46216;52.220;5.134;2022-10-10T00:10:25;6.13;;;5.55;;
60372;SDS011;46216;52.220;5.134;2022-10-10T00:12:51;6.72;;;6.00;;
60372;SDS011;46216;52.220;5.134;2022-10-10T00:15:17;7.30;;;6.40;;
60372;SDS011;46216;52.220;5.134;2022-10-10T00:17:42;7.65;;;6.28;;
60372;SDS011;46216;52.220;5.134;2022-10-10T00:20:12;7.95;;;5.93;;
60372;SDS011;46216;52.220;5.134;2022-10-10T00:22:39;9.52;;;6.05;;
60372;SDS011;46216;52.220;5.134;2022-10-10T00:25:05;10.52;;;6.70;;
60372;SDS011;46216;52.220;5.134;2022-10-10T00:27:32;8.70;;;6.38;;
60372;SDS011;46216;52.220;5.134;2022-10-10T00:29:57;8.90;;;6.90;;
60372;SDS011;46216;52.220;5.134;2022-10-10T00:32:23;7.93;;;6.07;;
60372;SDS011;46216;52.220;5.134;2022-10-10T00:34:48;10.57;;;6.70;;
60372;SDS011;46216;52.220;5.134;2022-10-10T00:37:13;11.82;;;7.00;;
60372;SDS011;46216;52.220;5.134;2022-10-10T00:39:39;9.15;;;6.22;;
60372;SDS011;46216;52.220;5.134;2022-10-10T00:42:04;11.60;;;6.60;;
60372;SDS011;46216;52.220;5.134;2022-10-10T00:44:30;8.77;;;6.68;;
60372;SDS011;46216;52.220;5.134;2022-10-10T00:46:55;13.55;;;6.88;;
60372;SDS011;46216;52.220;5.134;2022-10-10T00:49:21;9.55;;;6.72;;
60372;SDS011;46216;52.220;5.134;2022-10-10T00:52:04;8.93;;;6.28;;
60372;SDS011;46216;52.220;5.134;2022-10-10T00:54:33;8.50;;;6.60;;
60372;SDS011;46216;52.220;5.134;2022-10-10T00:57:05;11.15;;;6.80;;
60372;SDS011;46216;52.220;5.134;2022-10-10T00:59:36;9.13;;;6.43;;
60372;SDS011;46216;52.220;5.134;2022-10-10T01:02:04;8.20;;;6.70;;
60372;SDS011;46216;52.220;5.134;2022-10-10T01:07:10;9.70;;;6.80;;
60372;SDS011;46216;52.220;5.134;2022-10-10T01:09:40;9.02;;;7.20;;
60372;SDS011;46216;52.220;5.134;2022-10-10T01:15:00;9.18;;;6.88;;
60372;SDS011;46216;52.220;5.134;2022-10-10T01:23:00;8.00;;;6.53;;
60372;SDS011;46216;52.220;5.134;2022-10-10T01:27:59;9.15;;;7.13;;
60372;SDS011;46216;52.220;5.134;2022-10-10T01:30:27;11.20;;;7.13;;
60372;SDS011;46216;52.220;5.134;2022-10-10T01:35:50;9.18;;;7.18;;
60372;SDS011;46216;52.220;5.134;2022-10-10T01:38:25;12.35;;;7.38;;
60372;SDS011;46216;52.220;5.134;2022-10-10T01:41:04;12.73;;;6.80;;
60372;SDS011;46216;52.220;5.134;2022-10-10T01:43:34;8.05;;;7.00;;
60372;SDS011;46216;52.220;5.134;2022-10-10T01:46:08;8.23;;;6.85;;
60372;SDS011;46216;52.220;5.134;2022-10-10T01:48:35;10.00;;;6.85;;
60372;SDS011;46216;52.220;5.134;2022-10-10T01:54:03;8.85;;;7.15;;
60372;SDS011;46216;52.220;5.134;2022-10-10T01:56:46;8.43;;;7.20;;
60372;SDS011;46216;52.220;5.134;2022-10-10T02:02:27;9.25;;;7.00;;
60372;SDS011;46216;52.220;5.134;2022-10-10T02:08:11;8.85;;;7.10;;
60372;SDS011;46216;52.220;5.134;2022-10-10T02:10:43;11.30;;;6.93;;
60372;SDS011;46216;52.220;5.134;2022-10-10T02:13:12;8.40;;;6.97;;
60372;SDS011;46216;52.220;5.134;2022-10-10T02:15:42;9.57;;;7.68;;
60372;SDS011;46216;52.220;5.134;2022-10-10T02:18:09;9.77;;;7.45;;
60372;SDS011;46216;52.220;5.134;2022-10-10T02:20:38;11.45;;;7.20;;
60372;SDS011;46216;52.220;5.134;2022-10-10T02:23:06;9.30;;;7.18;;
60372;SDS011;46216;52.220;5.134;2022-10-10T02:25:35;9.45;;;7.30;;
60372;SDS011;46216;52.220;5.134;2022-10-10T02:28:08;8.77;;;7.05;;
60372;SDS011;46216;52.220;5.134;2022-10-10T02:30:40;10.60;;;7.22;;
60372;SDS011;46216;52.220;5.134;2022-10-10T02:33:09;11.43;;;7.45;;
60372;SDS011;46216;52.220;5.134;2022-10-10T02:35:39;10.05;;;7.57;;
60372;SDS011;46216;52.220;5.134;2022-10-10T02:38:07;9.52;;;7.38;;
60372;SDS011;46216;52.220;5.134;2022-10-10T02:40:36;9.88;;;7.35;;
60372;SDS011;46216;52.220;5.134;2022-10-10T02:43:04;9.70;;;7.13;;
60372;SDS011;46216;52.220;5.134;2022-10-10T02:45:31;9.23;;;7.38;;
60372;SDS011;46216;52.220;5.134;2022-10-10T02:47:57;9.95;;;6.88;;
60372;SDS011;46216;52.220;5.134;2022-10-10T02:50:24;9.80;;;7.20;;
60372;SDS011;46216;52.220;5.134;2022-10-10T02:52:51;9.27;;;7.30;;
60372;SDS011;46216;52.220;5.134;2022-10-10T02:55:16;9.57;;;7.78;;
60372;SDS011;46216;52.220;5.134;2022-10-10T02:57:42;10.65;;;7.13;;
60372;SDS011;46216;52.220;5.134;2022-10-10T03:00:07;10.30;;;7.50;;
60372;SDS011;46216;52.220;5.134;2022-10-10T03:02:33;9.90;;;8.60;;
60372;SDS011;46216;52.220;5.134;2022-10-10T03:04:59;11.52;;;8.02;;
60372;SDS011;46216;52.220;5.134;2022-10-10T03:07:24;10.20;;;7.90;;
60372;SDS011;46216;52.220;5.134;2022-10-10T03:09:50;8.55;;;7.50;;
60372;SDS011;46216;52.220;5.134;2022-10-10T03:12:16;11.32;;;7.70;;
60372;SDS011;46216;52.220;5.134;2022-10-10T03:14:42;10.55;;;7.85;;
60372;SDS011;46216;52.220;5.134;2022-10-10T03:17:07;9.75;;;7.68;;
60372;SDS011;46216;52.220;5.134;2022-10-10T03:19:32;9.57;;;7.57;;
60372;SDS011;46216;52.220;5.134;2022-10-10T03:21:58;10.75;;;7.80;;
60372;SDS011;46216;52.220;5.134;2022-10-10T03:24:23;9.18;;;7.72;;
60372;SDS011;46216;52.220;5.134;2022-10-10T03:26:49;9.98;;;7.72;;
60372;SDS011;46216;52.220;5.134;2022-10-10T03:29:14;10.85;;;7.60;;
60372;SDS011;46216;52.220;5.134;2022-10-10T03:31:39;12.60;;;7.30;;
60372;SDS011;46216;52.220;5.134;2022-10-10T03:34:05;10.68;;;7.72;;
60372;SDS011;46216;52.220;5.134;2022-10-10T03:36:30;10.65;;;7.85;;
60372;SDS011;46216;52.220;5.134;2022-10-10T03:38:55;10.38;;;8.15;;
60372;SDS011;46216;52.220;5.134;2022-10-10T03:41:21;11.50;;;7.85;;
60372;SDS011;46216;52.220;5.134;2022-10-10T03:43:46;8.63;;;7.72;;
60372;SDS011;46216;52.220;5.134;2022-10-10T03:46:11;11.98;;;7.97;;
60372;SDS011;46216;52.220;5.134;2022-10-10T03:48:37;10.27;;;7.93;;
60372;SDS011;46216;52.220;5.134;2022-10-10T03:51:02;8.40;;;7.03;;
60372;SDS011;46216;52.220;5.134;2022-10-10T03:53:28;10.40;;;8.07;;
60372;SDS011;46216;52.220;5.134;2022-10-10T03:55:53;12.63;;;8.52;;
60372;SDS011;46216;52.220;5.134;2022-10-10T03:58:19;9.23;;;7.80;;
60372;SDS011;46216;52.220;5.134;2022-10-10T04:00:51;10.88;;;8.18;;
60372;SDS011;46216;52.220;5.134;2022-10-10T04:03:18;9.77;;;7.75;;
60372;SDS011;46216;52.220;5.134;2022-10-10T04:05:43;10.77;;;7.70;;
60372;SDS011;46216;52.220;5.134;2022-10-10T04:08:09;9.15;;;7.68;;
60372;SDS011;46216;52.220;5.134;2022-10-10T04:10:34;12.52;;;7.85;;
60372;SDS011;46216;52.220;5.134;2022-10-10T04:12:59;9.40;;;8.23;;
60372;SDS011;46216;52.220;5.134;2022-10-10T04:15:25;11.48;;;7.57;;
60372;SDS011;46216;52.220;5.134;2022-10-10T04:17:50;9.38;;;7.72;;
60372;SDS011;46216;52.220;5.134;2022-10-10T04:20:16;12.70;;;8.50;;
60372;SDS011;46216;52.220;5.134;2022-10-10T04:22:42;10.82;;;7.88;;
60372;SDS011;46216;52.220;5.134;2022-10-10T04:25:09;11.38;;;7.88;;
60372;SDS011;46216;52.220;5.134;2022-10-10T04:27:35;10.77;;;8.05;;
60372;SDS011;46216;52.220;5.134;2022-10-10T04:30:00;10.38;;;7.88;;
60372;SDS011;46216;52.220;5.134;2022-10-10T04:32:26;11.77;;;8.30;;
60372;SDS011;46216;52.220;5.134;2022-10-10T04:34:52;10.20;;;7.60;;
60372;SDS011;46216;52.220;5.134;2022-10-10T04:37:17;10.00;;;7.88;;
60372;SDS011;46216;52.220;5.134;2022-10-10T04:39:42;11.63;;;7.97;;
60372;SDS011;46216;52.220;5.134;2022-10-10T04:42:08;11.63;;;7.93;;
60372;SDS011;46216;52.220;5.134;2022-10-10T04:44:33;8.57;;;7.57;;
60372;SDS011;46216;52.220;5.134;2022-10-10T04:46:58;10.80;;;7.65;;
60372;SDS011;46216;52.220;5.134;2022-10-10T04:49:24;11.55;;;7.45;;
60372;SDS011;46216;52.220;5.134;2022-10-10T04:51:49;10.07;;;7.88;;
60372;SDS011;46216;52.220;5.134;2022-10-10T04:54:15;11.68;;;7.75;;
60372;SDS011;46216;52.220;5.134;2022-10-10T04:56:40;11.57;;;7.82;;
60372;SDS011;46216;52.220;5.134;2022-10-10T04:59:06;10.77;;;8.18;;
60372;SDS011;46216;52.220;5.134;2022-10-10T05:01:32;10.32;;;7.97;;
60372;SDS011;46216;52.220;5.134;2022-10-10T05:03:58;10.27;;;8.13;;
60372;SDS011;46216;52.220;5.134;2022-10-10T05:06:23;11.57;;;8.32;;
60372;SDS011;46216;52.220;5.134;2022-10-10T05:08:49;12.18;;;8.00;;
60372;SDS011;46216;52.220;5.134;2022-10-10T05:11:14;10.13;;;7.50;;
60372;SDS011;46216;52.220;5.134;2022-10-10T05:13:40;10.38;;;7.85;;
60372;SDS011;46216;52.220;5.134;2022-10-10T05:16:05;11.02;;;8.15;;
60372;SDS011;46216;52.220;5.134;2022-10-10T05:18:30;11.52;;;7.97;;
60372;SDS011;46216;52.220;5.134;2022-10-10T05:20:56;9.80;;;8.15;;
60372;SDS011;46216;52.220;5.134;2022-10-10T05:23:21;10.88;;;7.95;;
60372;SDS011;46216;52.220;5.134;2022-10-10T05:25:47;10.60;;;7.70;;
60372;SDS011;46216;52.220;5.134;2022-10-10T05:28:13;12.07;;;7.78;;
60372;SDS011;46216;52.220;5.134;2022-10-10T05:30:38;9.25;;;7.97;;
60372;SDS011;46216;52.220;5.134;2022-10-10T05:33:04;10.88;;;8.10;;
60372;SDS011;46216;52.220;5.134;2022-10-10T05:35:29;10.32;;;8.15;;
60372;SDS011;46216;52.220;5.134;2022-10-10T05:37:55;9.27;;;7.60;;
60372;SDS011;46216;52.220;5.134;2022-10-10T05:40:21;10.70;;;7.70;;
60372;SDS011;46216;52.220;5.134;2022-10-10T05:42:46;11.93;;;8.73;;
60372;SDS011;46216;52.220;5.134;2022-10-10T05:45:12;11.60;;;8.50;;
60372;SDS011;46216;52.220;5.134;2022-10-10T05:47:37;13.88;;;8.55;;
60372;SDS011;46216;52.220;5.134;2022-10-10T05:50:03;12.10;;;8.35;;
60372;SDS011;46216;52.220;5.134;2022-10-10T05:52:28;9.65;;;8.05;;
60372;SDS011;46216;52.220;5.134;2022-10-10T05:54:54;14.27;;;9.10;;
60372;SDS011;46216;52.220;5.134;2022-10-10T05:57:19;9.48;;;7.95;;
60372;SDS011;46216;52.220;5.134;2022-10-10T05:59:45;11.40;;;8.10;;
60372;SDS011;46216;52.220;5.134;2022-10-10T06:02:11;11.75;;;8.45;;
60372;SDS011;46216;52.220;5.134;2022-10-10T06:04:37;13.93;;;8.50;;
60372;SDS011;46216;52.220;5.134;2022-10-10T06:07:02;11.75;;;8.15;;
60372;SDS011;46216;52.220;5.134;2022-10-10T06:09:28;10.73;;;7.97;;
60372;SDS011;46216;52.220;5.134;2022-10-10T06:11:53;9.95;;;8.00;;
60372;SDS011;46216;52.220;5.134;2022-10-10T06:14:18;11.95;;;8.15;;
60372;SDS011;46216;52.220;5.134;2022-10-10T06:16:44;11.90;;;8.43;;
60372;SDS011;46216;52.220;5.134;2022-10-10T06:19:10;11.52;;;8.20;;
60372;SDS011;46216;52.220;5.134;2022-10-10T06:21:35;9.75;;;7.85;;
60372;SDS011;46216;52.220;5.134;2022-10-10T06:24:00;10.93;;;8.25;;
60372;SDS011;46216;52.220;5.134;2022-10-10T06:26:26;10.15;;;7.80;;
60372;SDS011;46216;52.220;5.134;2022-10-10T06:28:51;10.55;;;8.23;;
60372;SDS011;46216;52.220;5.134;2022-10-10T06:31:17;12.95;;;8.82;;
60372;SDS011;46216;52.220;5.134;2022-10-10T06:33:42;12.05;;;8.25;;
60372;SDS011;46216;52.220;5.134;2022-10-10T06:36:09;12.05;;;8.30;;
60372;SDS011;46216;52.220;5.134;2022-10-10T06:38:36;13.55;;;7.78;;
60372;SDS011;46216;52.220;5.134;2022-10-10T06:41:03;14.05;;;7.88;;
60372;SDS011;46216;52.220;5.134;2022-10-10T06:43:31;10.40;;;7.63;;
60372;SDS011;46216;52.220;5.134;2022-10-10T06:45:57;9.32;;;7.88;;
60372;SDS011;46216;52.220;5.134;2022-10-10T06:48:23;11.93;;;8.50;;
60372;SDS011;46216;52.220;5.134;2022-10-10T06:50:55;11.50;;;8.15;;
60372;SDS011;46216;52.220;5.134;2022-10-10T06:53:22;11.02;;;8.25;;
60372;SDS011;46216;52.220;5.134;2022-10-10T06:55:47;10.40;;;8.45;;
60372;SDS011;46216;52.220;5.134;2022-10-10T06:58:12;12.88;;;8.30;;
60372;SDS011;46216;52.220;5.134;2022-10-10T07:00:38;10.20;;;7.90;;
60372;SDS011;46216;52.220;5.134;2022-10-10T07:03:04;12.00;;;8.10;;
60372;SDS011;46216;52.220;5.134;2022-10-10T07:05:30;13.75;;;8.25;;
60372;SDS011;46216;52.220;5.134;2022-10-10T07:07:55;12.52;;;7.60;;
60372;SDS011;46216;52.220;5.134;2022-10-10T07:10:20;12.45;;;9.05;;
60372;SDS011;46216;52.220;5.134;2022-10-10T07:12:45;9.48;;;7.72;;
60372;SDS011;46216;52.220;5.134;2022-10-10T07:15:11;12.25;;;8.25;;
60372;SDS011;46216;52.220;5.134;2022-10-10T07:17:36;12.48;;;8.05;;
60372;SDS011;46216;52.220;5.134;2022-10-10T07:20:02;9.65;;;7.88;;
60372;SDS011;46216;52.220;5.134;2022-10-10T07:22:27;12.15;;;8.15;;
60372;SDS011;46216;52.220;5.134;2022-10-10T07:24:53;10.25;;;7.80;;
60372;SDS011;46216;52.220;5.134;2022-10-10T07:27:18;10.77;;;8.05;;
60372;SDS011;46216;52.220;5.134;2022-10-10T07:29:43;11.95;;;7.93;;
60372;SDS011;46216;52.220;5.134;2022-10-10T07:32:09;11.90;;;7.65;;
60372;SDS011;46216;52.220;5.134;2022-10-10T07:34:34;12.75;;;7.30;;
60372;SDS011;46216;52.220;5.134;2022-10-10T07:37:00;12.32;;;7.38;;
60372;SDS011;46216;52.220;5.134;2022-10-10T07:39:25;13.10;;;7.82;;
60372;SDS011;46216;52.220;5.134;2022-10-10T07:41:51;12.70;;;7.85;;
60372;SDS011;46216;52.220;5.134;2022-10-10T07:44:17;12.65;;;8.15;;
60372;SDS011;46216;52.220;5.134;2022-10-10T07:46:43;9.10;;;7.30;;
60372;SDS011;46216;52.220;5.134;2022-10-10T07:49:09;10.55;;;7.35;;
60372;SDS011;46216;52.220;5.134;2022-10-10T07:51:35;11.95;;;7.65;;
60372;SDS011;46216;52.220;5.134;2022-10-10T07:54:01;13.50;;;7.47;;
60372;SDS011;46216;52.220;5.134;2022-10-10T07:56:27;13.18;;;7.78;;
60372;SDS011;46216;52.220;5.134;2022-10-10T07:58:52;12.60;;;7.15;;
60372;SDS011;46216;52.220;5.134;2022-10-10T08:01:18;11.68;;;7.20;;
60372;SDS011;46216;52.220;5.134;2022-10-10T08:03:43;12.55;;;7.07;;
60372;SDS011;46216;52.220;5.134;2022-10-10T08:06:11;12.10;;;7.15;;
60372;SDS011;46216;52.220;5.134;2022-10-10T08:08:38;11.38;;;7.03;;
60372;SDS011;46216;52.220;5.134;2022-10-10T08:11:04;9.82;;;7.18;;
60372;SDS011;46216;52.220;5.134;2022-10-10T08:13:31;14.02;;;6.90;;
60372;SDS011;46216;52.220;5.134;2022-10-10T08:15:56;9.07;;;7.18;;
60372;SDS011;46216;52.220;5.134;2022-10-10T08:18:21;12.88;;;6.88;;
60372;SDS011;46216;52.220;5.134;2022-10-10T08:20:47;11.63;;;7.00;;
60372;SDS011;46216;52.220;5.134;2022-10-10T08:23:21;10.70;;;6.93;;
60372;SDS011;46216;52.220;5.134;2022-10-10T08:25:47;10.77;;;7.03;;
60372;SDS011;46216;52.220;5.134;2022-10-10T08:28:12;9.80;;;7.18;;
60372;SDS011;46216;52.220;5.134;2022-10-10T08:30:39;8.95;;;7.05;;
60372;SDS011;46216;52.220;5.134;2022-10-10T08:33:05;11.80;;;7.55;;
60372;SDS011;46216;52.220;5.134;2022-10-10T08:35:30;9.98;;;6.70;;
60372;SDS011;46216;52.220;5.134;2022-10-10T08:37:55;11.32;;;7.25;;
60372;SDS011;46216;52.220;5.134;2022-10-10T08:40:21;11.20;;;7.43;;
60372;SDS011;46216;52.220;5.134;2022-10-10T08:42:49;10.57;;;6.93;;
60372;SDS011;46216;52.220;5.134;2022-10-10T08:45:22;9.77;;;7.05;;
60372;SDS011;46216;52.220;5.134;2022-10-10T08:47:57;11.52;;;7.25;;
60372;SDS011;46216;52.220;5.134;2022-10-10T08:50:28;13.45;;;7.07;;
60372;SDS011;46216;52.220;5.134;2022-10-10T08:53:11;9.90;;;6.95;;
60372;SDS011;46216;52.220;5.134;2022-10-10T08:55:41;11.80;;;7.35;;
60372;SDS011;46216;52.220;5.134;2022-10-10T08:58:14;12.68;;;7.20;;
60372;SDS011;46216;52.220;5.134;2022-10-10T09:00:48;9.05;;;7.35;;
60372;SDS011;46216;52.220;5.134;2022-10-10T09:11:21;11.00;;;6.93;;
60372;SDS011;46216;52.220;5.134;2022-10-10T09:14:10;10.23;;;7.00;;
60372;SDS011;46216;52.220;5.134;2022-10-10T09:16:59;13.98;;;7.38;;
60372;SDS011;46216;52.220;5.134;2022-10-10T09:19:35;12.52;;;7.40;;
60372;SDS011;46216;52.220;5.134;2022-10-10T09:22:12;11.20;;;7.20;;
60372;SDS011;46216;52.220;5.134;2022-10-10T09:24:44;13.35;;;7.57;;
60372;SDS011;46216;52.220;5.134;2022-10-10T09:27:16;11.48;;;7.38;;
60372;SDS011;46216;52.220;5.134;2022-10-10T09:29:51;13.25;;;7.47;;
60372;SDS011;46216;52.220;5.134;2022-10-10T09:32:26;9.55;;;7.25;;
60372;SDS011;46216;52.220;5.134;2022-10-10T09:34:59;10.63;;;7.43;;
60372;SDS011;46216;52.220;5.134;2022-10-10T09:37:36;13.68;;;8.23;;
60372;SDS011;46216;52.220;5.134;2022-10-10T09:40:45;10.30;;;7.63;;
60372;SDS011;46216;52.220;5.134;2022-10-10T09:43:08;11.68;;;7.70;;
60372;SDS011;46216;52.220;5.134;2022-10-10T09:45:39;12.18;;;7.95;;
60372;SDS011;46216;52.220;5.134;2022-10-10T09:48:10;11.38;;;8.48;;
60372;SDS011;46216;52.220;5.134;2022-10-10T09:50:36;11.45;;;7.75;;
60372;SDS011;46216;52.220;5.134;2022-10-10T09:53:03;10.98;;;7.60;;
60372;SDS011;46216;52.220;5.134;2022-10-10T09:58:00;9.88;;;7.22;;
60372;SDS011;46216;52.220;5.134;2022-10-10T10:00:35;13.90;;;8.18;;
60372;SDS011;46216;52.220;5.134;2022-10-10T10:05:44;11.13;;;7.30;;
60372;SDS011;46216;52.220;5.134;2022-10-10T10:08:23;11.05;;;7.32;;
60372;SDS011;46216;52.220;5.134;2022-10-10T10:10:50;12.27;;;7.43;;
60372;SDS011;46216;52.220;5.134;2022-10-10T10:13:21;13.60;;;7.63;;
60372;SDS011;46216;52.220;5.134;2022-10-10T10:15:51;10.32;;;7.03;;
60372;SDS011;46216;52.220;5.134;2022-10-10T10:18:23;13.18;;;6.97;;
60372;SDS011;46216;52.220;5.134;2022-10-10T10:21:46;13.77;;;7.68;;
60372;SDS011;46216;52.220;5.134;2022-10-10T10:23:48;13.65;;;7.57;;
60372;SDS011;46216;52.220;5.134;2022-10-10T10:26:14;14.45;;;7.72;;
60372;SDS011;46216;52.220;5.134;2022-10-10T10:28:49;11.07;;;7.60;;
60372;SDS011;46216;52.220;5.134;2022-10-10T10:43:11;13.60;;;7.65;;
60372;SDS011;46216;52.220;5.134;2022-10-10T10:47:59;9.80;;;7.47;;
60372;SDS011;46216;52.220;5.134;2022-10-10T10:50:42;12.13;;;7.32;;
60372;SDS011;46216;52.220;5.134;2022-10-10T10:53:16;10.45;;;8.07;;
60372;SDS011;46216;52.220;5.134;2022-10-10T11:01:35;11.02;;;7.07;;
60372;SDS011;46216;52.220;5.134;2022-10-10T11:04:18;9.23;;;7.03;;
60372;SDS011;46216;52.220;5.134;2022-10-10T11:07:10;11.38;;;6.97;;
60372;SDS011;46216;52.220;5.134;2022-10-10T11:09:43;10.23;;;6.90;;
60372;SDS011;46216;52.220;5.134;2022-10-10T11:14:58;12.32;;;7.13;;
60372;SDS011;46216;52.220;5.134;2022-10-10T11:17:37;10.07;;;7.35;;
60372;SDS011;46216;52.220;5.134;2022-10-10T11:20:10;11.40;;;6.80;;
60372;SDS011;46216;52.220;5.134;2022-10-10T11:22:59;11.40;;;7.50;;
60372;SDS011;46216;52.220;5.134;2022-10-10T11:25:32;11.15;;;7.47;;
60372;SDS011;46216;52.220;5.134;2022-10-10T11:30:58;13.00;;;7.40;;
60372;SDS011;46216;52.220;5.134;2022-10-10T11:35:54;12.30;;;7.40;;
60372;SDS011;46216;52.220;5.134;2022-10-10T11:38:37;13.02;;;8.02;;
60372;SDS011;46216;52.220;5.134;2022-10-10T11:49:21;14.10;;;7.45;;
60372;SDS011;46216;52.220;5.134;2022-10-10T11:54:50;12.48;;;7.43;;
60372;SDS011;46216;52.220;5.134;2022-10-10T11:57:30;10.40;;;7.43;;
60372;SDS011;46216;52.220;5.134;2022-10-10T12:00:04;11.73;;;7.10;;
60372;SDS011;46216;52.220;5.134;2022-10-10T12:02:41;13.75;;;6.95;;
60372;SDS011;46216;52.220;5.134;2022-10-10T12:05:46;13.38;;;7.32;;
60372;SDS011;46216;52.220;5.134;2022-10-10T12:11:39;11.02;;;6.70;;
60372;SDS011;46216;52.220;5.134;2022-10-10T12:13:48;10.20;;;6.75;;
60372;SDS011;46216;52.220;5.134;2022-10-10T12:16:20;12.25;;;6.72;;
60372;SDS011;46216;52.220;5.134;2022-10-10T12:18:51;9.60;;;6.68;;
60372;SDS011;46216;52.220;5.134;2022-10-10T12:21:20;10.27;;;6.70;;
60372;SDS011;46216;52.220;5.134;2022-10-10T12:23:49;11.20;;;6.90;;
60372;SDS011;46216;52.220;5.134;2022-10-10T12:26:27;9.80;;;6.63;;
60372;SDS011;46216;52.220;5.134;2022-10-10T12:29:16;9.20;;;6.22;;
60372;SDS011;46216;52.220;5.134;2022-10-10T12:37:20;13.60;;;6.13;;
60372;SDS011;46216;52.220;5.134;2022-10-10T12:42:28;12.45;;;5.50;;
60372;SDS011;46216;52.220;5.134;2022-10-10T12:47:55;9.40;;;5.43;;
60372;SDS011;46216;52.220;5.134;2022-10-10T12:50:32;8.93;;;5.10;;
60372;SDS011;46216;52.220;5.134;2022-10-10T12:53:02;9.05;;;5.18;;
60372;SDS011;46216;52.220;5.134;2022-10-10T12:58:06;8.18;;;4.10;;
60372;SDS011;46216;52.220;5.134;2022-10-10T13:00:46;7.57;;;3.80;;
60372;SDS011;46216;52.220;5.134;2022-10-10T13:03:29;6.05;;;3.53;;
60372;SDS011;46216;52.220;5.134;2022-10-10T13:06:01;5.55;;;2.83;;
60372;SDS011;46216;52.220;5.134;2022-10-10T13:08:29;6.88;;;2.35;;
60372;SDS011;46216;52.220;5.134;2022-10-10T13:11:02;5.63;;;1.95;;
60372;SDS011;46216;52.220;5.134;2022-10-10T13:13:31;4.20;;;1.50;;
60372;SDS011;46216;52.220;5.134;2022-10-10T13:15:58;3.22;;;1.48;;
60372;SDS011;46216;52.220;5.134;2022-10-10T13:18:38;2.92;;;1.08;;
60372;SDS011;46216;52.220;5.134;2022-10-10T13:21:28;1.65;;;0.70;;
60372;SDS011;46216;52.220;5.134;2022-10-10T13:24:04;1.50;;;0.50;;
60372;SDS011;46216;52.220;5.134;2022-10-10T13:26:31;2.95;;;0.68;;
60372;SDS011;46216;52.220;5.134;2022-10-10T13:29:06;3.63;;;0.90;;
60372;SDS011;46216;52.220;5.134;2022-10-10T13:32:02;2.22;;;0.80;;
60372;SDS011;46216;52.220;5.134;2022-10-10T13:34:37;2.42;;;0.75;;
60372;SDS011;46216;52.220;5.134;2022-10-10T13:37:06;3.83;;;0.82;;
60372;SDS011;46216;52.220;5.134;2022-10-10T13:39:32;4.10;;;1.00;;
60372;SDS011;46216;52.220;5.134;2022-10-10T13:42:02;3.20;;;1.10;;
60372;SDS011;46216;52.220;5.134;2022-10-10T13:44:31;4.25;;;1.05;;
60372;SDS011;46216;52.220;5.134;2022-10-10T13:50:01;2.85;;;0.98;;
60372;SDS011;46216;52.220;5.134;2022-10-10T13:52:27;4.55;;;1.15;;
60372;SDS011;46216;52.220;5.134;2022-10-10T13:54:53;7.45;;;1.23;;
60372;SDS011;46216;52.220;5.134;2022-10-10T13:57:22;6.35;;;1.30;;
60372;SDS011;46216;52.220;5.134;2022-10-10T13:59:57;8.77;;;1.33;;
60372;SDS011;46216;52.220;5.134;2022-10-10T14:02:29;5.65;;;1.50;;
60372;SDS011;46216;52.220;5.134;2022-10-10T14:04:56;9.50;;;1.90;;
60372;SDS011;46216;52.220;5.134;2022-10-10T14:07:23;7.75;;;1.60;;
60372;SDS011;46216;52.220;5.134;2022-10-10T14:12:24;6.88;;;1.60;;
60372;SDS011;46216;52.220;5.134;2022-10-10T14:14:54;7.75;;;1.48;;
60372;SDS011;46216;52.220;5.134;2022-10-10T14:17:22;8.85;;;1.77;;
60372;SDS011;46216;52.220;5.134;2022-10-10T14:19:47;9.82;;;1.95;;
60372;SDS011;46216;52.220;5.134;2022-10-10T14:22:13;11.70;;;2.22;;
60372;SDS011;46216;52.220;5.134;2022-10-10T14:24:39;10.68;;;1.85;;
60372;SDS011;46216;52.220;5.134;2022-10-10T14:27:23;10.40;;;1.73;;
60372;SDS011;46216;52.220;5.134;2022-10-10T14:33:50;11.20;;;2.30;;
60372;SDS011;46216;52.220;5.134;2022-10-10T14:44:25;15.23;;;2.60;;
60372;SDS011;46216;52.220;5.134;2022-10-10T14:53:42;13.13;;;2.47;;
60372;SDS011;46216;52.220;5.134;2022-10-10T14:56:13;13.10;;;2.22;;
60372;SDS011;46216;52.220;5.134;2022-10-10T14:58:41;11.25;;;2.33;;
60372;SDS011;46216;52.220;5.134;2022-10-10T15:01:07;9.43;;;2.20;;
60372;SDS011;46216;52.220;5.134;2022-10-10T15:03:54;13.88;;;2.63;;
60372;SDS011;46216;52.220;5.134;2022-10-10T15:06:25;12.63;;;2.67;;
60372;SDS011;46216;52.220;5.134;2022-10-10T15:08:51;13.90;;;2.60;;
60372;SDS011;46216;52.220;5.134;2022-10-10T15:11:16;14.20;;;2.78;;
60372;SDS011;46216;52.220;5.134;2022-10-10T15:13:41;12.95;;;2.50;;
60372;SDS011;46216;52.220;5.134;2022-10-10T15:16:06;15.65;;;3.15;;
60372;SDS011;46216;52.220;5.134;2022-10-10T15:18:32;13.48;;;2.50;;
60372;SDS011;46216;52.220;5.134;2022-10-10T15:26:49;10.98;;;2.30;;
60372;SDS011;46216;52.220;5.134;2022-10-10T15:29:15;10.35;;;2.20;;
60372;SDS011;46216;52.220;5.134;2022-10-10T15:37:19;9.70;;;2.13;;
60372;SDS011;46216;52.220;5.134;2022-10-10T15:39:48;10.00;;;1.90;;
60372;SDS011;46216;52.220;5.134;2022-10-10T15:42:16;13.32;;;2.22;;
60372;SDS011;46216;52.220;5.134;2022-10-10T15:45:17;12.38;;;2.03;;
60372;SDS011;46216;52.220;5.134;2022-10-10T15:48:21;8.65;;;1.83;;
60372;SDS011;46216;52.220;5.134;2022-10-10T15:51:19;10.50;;;2.20;;
60372;SDS011;46216;52.220;5.134;2022-10-10T15:53:45;12.40;;;2.05;;
60372;SDS011;46216;52.220;5.134;2022-10-10T16:00:53;14.88;;;2.00;;
60372;SDS011;46216;52.220;5.134;2022-10-10T16:03:19;8.57;;;2.28;;
60372;SDS011;46216;52.220;5.134;2022-10-10T16:06:02;8.60;;;1.98;;
60372;SDS011;46216;52.220;5.134;2022-10-10T16:08:29;10.85;;;2.00;;
60372;SDS011;46216;52.220;5.134;2022-10-10T16:10:56;8.40;;;2.20;;
60372;SDS011;46216;52.220;5.134;2022-10-10T16:13:31;9.27;;;1.92;;
60372;SDS011;46216;52.220;5.134;2022-10-10T16:15:59;7.30;;;1.70;;
60372;SDS011;46216;52.220;5.134;2022-10-10T16:18:29;9.77;;;1.98;;
60372;SDS011;46216;52.220;5.134;2022-10-10T16:21:05;8.93;;;2.20;;
60372;SDS011;46216;52.220;5.134;2022-10-10T16:23:43;9.85;;;1.95;;
60372;SDS011;46216;52.220;5.134;2022-10-10T16:26:14;10.18;;;2.30;;
60372;SDS011;46216;52.220;5.134;2022-10-10T16:28:44;9.82;;;1.95;;
60372;SDS011;46216;52.220;5.134;2022-10-10T16:31:11;8.98;;;2.17;;
60372;SDS011;46216;52.220;5.134;2022-10-10T16:33:38;12.07;;;2.17;;
60372;SDS011;46216;52.220;5.134;2022-10-10T16:36:38;7.05;;;2.38;;
60372;SDS011;46216;52.220;5.134;2022-10-10T16:38:58;12.90;;;2.30;;
60372;SDS011;46216;52.220;5.134;2022-10-10T16:41:25;9.65;;;1.98;;
60372;SDS011;46216;52.220;5.134;2022-10-10T16:43:52;10.30;;;2.10;;
60372;SDS011;46216;52.220;5.134;2022-10-10T16:46:20;9.30;;;2.17;;
60372;SDS011;46216;52.220;5.134;2022-10-10T16:48:47;12.05;;;2.40;;
60372;SDS011;46216;52.220;5.134;2022-10-10T16:51:14;7.47;;;2.20;;
60372;SDS011;46216;52.220;5.134;2022-10-10T16:53:42;10.00;;;2.50;;
60372;SDS011;46216;52.220;5.134;2022-10-10T16:56:10;9.82;;;2.33;;
60372;SDS011;46216;52.220;5.134;2022-10-10T16:58:37;8.70;;;2.50;;
60372;SDS011;46216;52.220;5.134;2022-10-10T17:01:07;9.82;;;2.20;;
60372;SDS011;46216;52.220;5.134;2022-10-10T17:03:33;11.32;;;2.40;;
60372;SDS011;46216;52.220;5.134;2022-10-10T17:06:03;8.40;;;1.98;;
60372;SDS011;46216;52.220;5.134;2022-10-10T17:08:30;14.77;;;2.42;;